sensor_id;sensor_type;location;lat;lon;timestamp;pressure;altitude;pressure_sealevel;temperature;humidity
44697;BME280;57264;47.480;19.354;2023-04-01T00:00:24;97802.84;;;6.81;94.12
44697;BME280;57264;47.480;19.354;2023-04-01T00:02:50;97803.22;;;6.85;93.84
44697;BME280;57264;47.480;19.354;2023-04-01T00:05:16;97808.63;;;6.83;94.24
44697;BME280;57264;47.480;19.354;2023-04-01T00:07:42;97791.63;;;6.81;93.98
44697;BME280;57264;47.480;19.354;2023-04-01T00:10:10;97791.53;;;6.87;94.92
44697;BME280;57264;47.480;19.354;2023-04-01T00:12:36;97790.91;;;6.92;94.31
44697;BME280;57264;47.480;19.354;2023-04-01T00:15:03;97793.59;;;6.85;95.19
44697;BME280;57264;47.480;19.354;2023-04-01T00:17:29;97794.88;;;6.94;95.30
44697;BME280;57264;47.480;19.354;2023-04-01T00:19:56;97792.19;;;6.83;94.96
44697;BME280;57264;47.480;19.354;2023-04-01T00:22:22;97790.97;;;6.85;95.32
44697;BME280;57264;47.480;19.354;2023-04-01T00:24:48;97788.50;;;6.90;94.96
44697;BME280;57264;47.480;19.354;2023-04-01T00:27:14;97784.31;;;6.89;94.90
44697;BME280;57264;47.480;19.354;2023-04-01T00:29:45;97781.25;;;6.92;95.65
44697;BME280;57264;47.480;19.354;2023-04-01T00:32:11;97792.56;;;6.86;95.42
44697;BME280;57264;47.480;19.354;2023-04-01T00:34:37;97790.09;;;6.91;96.01
44697;BME280;57264;47.480;19.354;2023-04-01T00:37:03;97792.19;;;6.83;95.76
44697;BME280;57264;47.480;19.354;2023-04-01T00:39:30;97785.41;;;6.82;95.87
44697;BME280;57264;47.480;19.354;2023-04-01T00:41:56;97793.44;;;6.80;96.06
44697;BME280;57264;47.480;19.354;2023-04-01T00:44:25;97781.25;;;6.74;96.27
44697;BME280;57264;47.480;19.354;2023-04-01T00:46:51;97782.00;;;6.81;96.44
44697;BME280;57264;47.480;19.354;2023-04-01T00:49:23;97777.47;;;6.70;96.63
44697;BME280;57264;47.480;19.354;2023-04-01T00:51:53;97785.97;;;6.66;96.45
44697;BME280;57264;47.480;19.354;2023-04-01T00:54:21;97779.59;;;6.62;96.84
44697;BME280;57264;47.480;19.354;2023-04-01T00:59:40;97786.38;;;6.63;97.75
44697;BME280;57264;47.480;19.354;2023-04-01T01:04:56;97791.94;;;6.48;97.88
44697;BME280;57264;47.480;19.354;2023-04-01T01:07:45;97786.44;;;6.38;97.24
44697;BME280;57264;47.480;19.354;2023-04-01T01:10:35;97777.16;;;6.42;98.03
44697;BME280;57264;47.480;19.354;2023-04-01T01:16:00;97781.72;;;6.46;97.81
44697;BME280;57264;47.480;19.354;2023-04-01T01:18:44;97789.78;;;6.45;98.38
44697;BME280;57264;47.480;19.354;2023-04-01T01:27:18;97791.66;;;6.56;98.22
44697;BME280;57264;47.480;19.354;2023-04-01T01:29:59;97792.22;;;6.58;98.48
44697;BME280;57264;47.480;19.354;2023-04-01T01:38:13;97780.31;;;6.69;98.16
44697;BME280;57264;47.480;19.354;2023-04-01T01:40:42;97772.13;;;6.65;97.98
44697;BME280;57264;47.480;19.354;2023-04-01T01:43:12;97764.34;;;6.58;97.92
44697;BME280;57264;47.480;19.354;2023-04-01T01:45:44;97758.78;;;6.55;97.90
44697;BME280;57264;47.480;19.354;2023-04-01T01:48:11;97764.22;;;6.53;97.88
44697;BME280;57264;47.480;19.354;2023-04-01T01:50:37;97764.78;;;6.55;98.47
44697;BME280;57264;47.480;19.354;2023-04-01T01:53:06;97764.59;;;6.57;98.07
44697;BME280;57264;47.480;19.354;2023-04-01T01:55:35;97772.53;;;6.62;98.00
44697;BME280;57264;47.480;19.354;2023-04-01T01:58:12;97776.69;;;6.70;97.77
44697;BME280;57264;47.480;19.354;2023-04-01T02:00:42;97783.09;;;6.74;98.41
44697;BME280;57264;47.480;19.354;2023-04-01T02:03:11;97779.88;;;6.72;97.90
44697;BME280;57264;47.480;19.354;2023-04-01T02:05:38;97772.41;;;6.75;98.42
44697;BME280;57264;47.480;19.354;2023-04-01T02:08:13;97774.59;;;6.78;98.34
44697;BME280;57264;47.480;19.354;2023-04-01T02:10:45;97767.91;;;6.82;97.65
44697;BME280;57264;47.480;19.354;2023-04-01T02:13:33;97756.94;;;6.80;97.41
44697;BME280;57264;47.480;19.354;2023-04-01T02:16:02;97756.31;;;6.78;98.19
44697;BME280;57264;47.480;19.354;2023-04-01T02:18:35;97758.53;;;6.81;97.14
44697;BME280;57264;47.480;19.354;2023-04-01T02:21:03;97754.88;;;6.82;98.09
44697;BME280;57264;47.480;19.354;2023-04-01T02:23:33;97755.31;;;6.79;98.01
44697;BME280;57264;47.480;19.354;2023-04-01T02:26:01;97751.06;;;6.85;97.53
44697;BME280;57264;47.480;19.354;2023-04-01T02:28:28;97760.41;;;6.92;97.78
44697;BME280;57264;47.480;19.354;2023-04-01T02:30:57;97751.69;;;6.98;97.46
44697;BME280;57264;47.480;19.354;2023-04-01T02:33:27;97749.81;;;7.05;97.11
44697;BME280;57264;47.480;19.354;2023-04-01T02:35:53;97748.94;;;7.12;96.60
44697;BME280;57264;47.480;19.354;2023-04-01T02:38:18;97750.97;;;7.10;97.41
44697;BME280;57264;47.480;19.354;2023-04-01T02:40:47;97746.31;;;7.12;97.28
44697;BME280;57264;47.480;19.354;2023-04-01T02:43:13;97745.75;;;7.10;96.94
44697;BME280;57264;47.480;19.354;2023-04-01T02:45:39;97750.72;;;7.11;96.81
44697;BME280;57264;47.480;19.354;2023-04-01T02:48:05;97749.72;;;7.12;96.91
44697;BME280;57264;47.480;19.354;2023-04-01T02:50:31;97751.31;;;7.13;97.15
44697;BME280;57264;47.480;19.354;2023-04-01T02:52:56;97748.38;;;7.10;96.53
44697;BME280;57264;47.480;19.354;2023-04-01T02:55:22;97750.81;;;7.04;96.72
44697;BME280;57264;47.480;19.354;2023-04-01T02:57:56;97744.66;;;6.99;96.53
44697;BME280;57264;47.480;19.354;2023-04-01T03:00:22;97740.91;;;6.95;96.83
44697;BME280;57264;47.480;19.354;2023-04-01T03:02:47;97744.16;;;6.90;96.73
44697;BME280;57264;47.480;19.354;2023-04-01T03:05:13;97749.81;;;6.87;96.92
44697;BME280;57264;47.480;19.354;2023-04-01T03:07:38;97755.63;;;6.89;97.12
44697;BME280;57264;47.480;19.354;2023-04-01T03:10:06;97743.72;;;6.75;96.66
44697;BME280;57264;47.480;19.354;2023-04-01T03:12:31;97749.03;;;6.69;96.77
44697;BME280;57264;47.480;19.354;2023-04-01T03:14:57;97749.47;;;6.66;97.34
44697;BME280;57264;47.480;19.354;2023-04-01T03:17:22;97749.06;;;6.62;96.82
44697;BME280;57264;47.480;19.354;2023-04-01T03:19:48;97751.19;;;6.53;96.99
44697;BME280;57264;47.480;19.354;2023-04-01T03:22:13;97749.50;;;6.41;97.08
44697;BME280;57264;47.480;19.354;2023-04-01T03:24:40;97744.94;;;6.36;97.69
44697;BME280;57264;47.480;19.354;2023-04-01T03:27:05;97744.13;;;6.36;97.48
44697;BME280;57264;47.480;19.354;2023-04-01T03:29:30;97744.41;;;6.28;98.03
44697;BME280;57264;47.480;19.354;2023-04-01T03:31:56;97743.69;;;6.21;97.78
44697;BME280;57264;47.480;19.354;2023-04-01T03:34:24;97738.47;;;6.21;98.07
44697;BME280;57264;47.480;19.354;2023-04-01T03:36:50;97741.50;;;6.18;98.37
44697;BME280;57264;47.480;19.354;2023-04-01T03:39:16;97756.91;;;6.19;98.30
44697;BME280;57264;47.480;19.354;2023-04-01T03:41:44;97763.19;;;6.11;98.19
44697;BME280;57264;47.480;19.354;2023-04-01T03:44:11;97765.22;;;6.09;97.98
44697;BME280;57264;47.480;19.354;2023-04-01T03:46:37;97772.78;;;6.18;98.04
44697;BME280;57264;47.480;19.354;2023-04-01T03:49:02;97779.50;;;6.25;98.48
44697;BME280;57264;47.480;19.354;2023-04-01T03:51:40;97783.03;;;6.13;98.20
44697;BME280;57264;47.480;19.354;2023-04-01T03:54:07;97780.06;;;6.02;98.66
44697;BME280;57264;47.480;19.354;2023-04-01T03:56:32;97773.59;;;6.11;98.13
44697;BME280;57264;47.480;19.354;2023-04-01T03:59:02;97772.25;;;6.02;98.91
44697;BME280;57264;47.480;19.354;2023-04-01T04:01:28;97771.53;;;5.95;98.56
44697;BME280;57264;47.480;19.354;2023-04-01T04:03:55;97774.94;;;5.96;98.51
44697;BME280;57264;47.480;19.354;2023-04-01T04:06:22;97779.41;;;6.14;99.11
44697;BME280;57264;47.480;19.354;2023-04-01T04:08:48;97781.16;;;6.20;98.84
44697;BME280;57264;47.480;19.354;2023-04-01T04:11:13;97776.94;;;6.19;98.68
44697;BME280;57264;47.480;19.354;2023-04-01T04:13:39;97775.16;;;6.19;98.53
44697;BME280;57264;47.480;19.354;2023-04-01T04:16:05;97769.94;;;6.19;98.80
44697;BME280;57264;47.480;19.354;2023-04-01T04:18:30;97784.41;;;6.15;98.25
44697;BME280;57264;47.480;19.354;2023-04-01T04:20:56;97785.25;;;6.09;98.28
44697;BME280;57264;47.480;19.354;2023-04-01T04:23:22;97789.66;;;6.08;98.72
44697;BME280;57264;47.480;19.354;2023-04-01T04:25:59;97782.66;;;6.09;98.33
44697;BME280;57264;47.480;19.354;2023-04-01T04:28:26;97783.47;;;6.09;98.42
44697;BME280;57264;47.480;19.354;2023-04-01T04:30:52;97775.63;;;6.09;98.88
44697;BME280;57264;47.480;19.354;2023-04-01T04:33:18;97785.03;;;6.10;98.87
44697;BME280;57264;47.480;19.354;2023-04-01T04:35:44;97784.03;;;6.11;98.23
44697;BME280;57264;47.480;19.354;2023-04-01T04:38:09;97778.44;;;6.08;98.82
44697;BME280;57264;47.480;19.354;2023-04-01T04:40:39;97775.84;;;6.08;99.03
44697;BME280;57264;47.480;19.354;2023-04-01T04:43:05;97766.78;;;6.10;98.20
44697;BME280;57264;47.480;19.354;2023-04-01T04:45:31;97771.00;;;6.11;98.10
44697;BME280;57264;47.480;19.354;2023-04-01T04:47:57;97766.38;;;6.14;97.92
44697;BME280;57264;47.480;19.354;2023-04-01T04:50:24;97764.28;;;6.22;98.16
44697;BME280;57264;47.480;19.354;2023-04-01T04:52:50;97760.63;;;6.30;97.94
44697;BME280;57264;47.480;19.354;2023-04-01T04:55:16;97758.53;;;6.38;97.69
44697;BME280;57264;47.480;19.354;2023-04-01T04:57:42;97760.09;;;6.46;98.09
44697;BME280;57264;47.480;19.354;2023-04-01T05:00:08;97768.00;;;6.57;97.48
44697;BME280;57264;47.480;19.354;2023-04-01T05:02:35;97764.72;;;6.62;97.05
44697;BME280;57264;47.480;19.354;2023-04-01T05:05:00;97762.91;;;6.63;96.65
44697;BME280;57264;47.480;19.354;2023-04-01T05:07:26;97761.97;;;6.75;96.54
44697;BME280;57264;47.480;19.354;2023-04-01T05:09:52;97765.38;;;6.76;95.52
44697;BME280;57264;47.480;19.354;2023-04-01T05:12:17;97766.25;;;6.88;95.02
44697;BME280;57264;47.480;19.354;2023-04-01T05:14:43;97765.81;;;6.91;95.21
44697;BME280;57264;47.480;19.354;2023-04-01T05:17:10;97770.19;;;6.97;95.00
44697;BME280;57264;47.480;19.354;2023-04-01T05:19:37;97761.16;;;7.11;94.25
44697;BME280;57264;47.480;19.354;2023-04-01T05:22:03;97761.69;;;7.20;93.65
44697;BME280;57264;47.480;19.354;2023-04-01T05:24:30;97756.47;;;7.20;92.99
44697;BME280;57264;47.480;19.354;2023-04-01T05:26:55;97761.34;;;7.46;92.91
44697;BME280;57264;47.480;19.354;2023-04-01T05:29:23;97768.81;;;7.42;92.19
44697;BME280;57264;47.480;19.354;2023-04-01T05:31:49;97758.69;;;7.64;92.04
44697;BME280;57264;47.480;19.354;2023-04-01T05:34:14;97762.13;;;7.76;92.28
44697;BME280;57264;47.480;19.354;2023-04-01T05:36:40;97761.22;;;7.82;90.66
44697;BME280;57264;47.480;19.354;2023-04-01T05:39:07;97761.66;;;7.79;90.10
44697;BME280;57264;47.480;19.354;2023-04-01T05:41:37;97765.63;;;7.70;90.67
44697;BME280;57264;47.480;19.354;2023-04-01T05:44:03;97763.47;;;7.79;90.60
44697;BME280;57264;47.480;19.354;2023-04-01T05:46:31;97772.47;;;7.94;90.14
44697;BME280;57264;47.480;19.354;2023-04-01T05:48:57;97769.78;;;8.01;88.69
44697;BME280;57264;47.480;19.354;2023-04-01T05:51:23;97762.97;;;8.12;89.69
44697;BME280;57264;47.480;19.354;2023-04-01T05:53:48;97766.06;;;8.20;89.63
44697;BME280;57264;47.480;19.354;2023-04-01T05:56:14;97766.56;;;8.29;88.18
44697;BME280;57264;47.480;19.354;2023-04-01T05:58:40;97761.44;;;8.45;87.87
44697;BME280;57264;47.480;19.354;2023-04-01T06:01:08;97761.31;;;8.64;87.89
44697;BME280;57264;47.480;19.354;2023-04-01T06:03:35;97758.94;;;8.74;87.08
44697;BME280;57264;47.480;19.354;2023-04-01T06:06:01;97765.03;;;8.91;87.38
44697;BME280;57264;47.480;19.354;2023-04-01T06:08:27;97757.28;;;8.96;86.55
44697;BME280;57264;47.480;19.354;2023-04-01T06:11:27;97769.31;;;9.09;86.29
44697;BME280;57264;47.480;19.354;2023-04-01T06:38:22;97774.69;;;10.32;77.41
44697;BME280;57264;47.480;19.354;2023-04-01T06:46:00;97770.41;;;10.81;74.86
44697;BME280;57264;47.480;19.354;2023-04-01T06:51:38;97779.03;;;11.20;73.67
44697;BME280;57264;47.480;19.354;2023-04-01T06:54:15;97777.06;;;11.32;72.94
44697;BME280;57264;47.480;19.354;2023-04-01T06:56:46;97770.88;;;11.65;72.44
44697;BME280;57264;47.480;19.354;2023-04-01T06:59:22;97766.69;;;11.69;71.58
44697;BME280;57264;47.480;19.354;2023-04-01T07:01:55;97772.56;;;11.76;70.93
44697;BME280;57264;47.480;19.354;2023-04-01T07:04:49;97772.63;;;11.81;69.72
44697;BME280;57264;47.480;19.354;2023-04-01T07:07:39;97758.28;;;11.94;68.65
44697;BME280;57264;47.480;19.354;2023-04-01T07:10:41;97759.06;;;12.26;68.89
44697;BME280;57264;47.480;19.354;2023-04-01T07:19:16;97767.16;;;12.56;66.88
44697;BME280;57264;47.480;19.354;2023-04-01T07:21:56;97764.81;;;12.55;67.37
44697;BME280;57264;47.480;19.354;2023-04-01T07:24:36;97774.06;;;12.62;67.23
44697;BME280;57264;47.480;19.354;2023-04-01T07:27:03;97774.16;;;12.78;67.46
44697;BME280;57264;47.480;19.354;2023-04-01T07:29:30;97775.84;;;12.57;66.59
44697;BME280;57264;47.480;19.354;2023-04-01T07:32:27;97781.28;;;12.40;67.84
44697;BME280;57264;47.480;19.354;2023-04-01T07:37:52;97772.66;;;12.97;63.70
44697;BME280;57264;47.480;19.354;2023-04-01T07:45:58;97762.13;;;12.97;61.69
44697;BME280;57264;47.480;19.354;2023-04-01T07:48:35;97765.25;;;12.89;63.39
44697;BME280;57264;47.480;19.354;2023-04-01T07:51:27;97761.81;;;12.83;62.80
44697;BME280;57264;47.480;19.354;2023-04-01T07:54:16;97760.91;;;12.62;60.02
44697;BME280;57264;47.480;19.354;2023-04-01T08:02:28;97760.88;;;12.57;62.68
44697;BME280;57264;47.480;19.354;2023-04-01T08:05:18;97767.09;;;12.83;61.43
44697;BME280;57264;47.480;19.354;2023-04-01T08:10:46;97758.47;;;12.98;60.04
44697;BME280;57264;47.480;19.354;2023-04-01T08:13:45;97767.31;;;13.24;60.65
44697;BME280;57264;47.480;19.354;2023-04-01T08:16:23;97757.41;;;13.86;59.73
44697;BME280;57264;47.480;19.354;2023-04-01T08:21:58;97766.47;;;13.18;59.06
44697;BME280;57264;47.480;19.354;2023-04-01T08:24:43;97762.19;;;12.60;59.03
44697;BME280;57264;47.480;19.354;2023-04-01T08:27:22;97768.47;;;12.54;59.72
44697;BME280;57264;47.480;19.354;2023-04-01T08:29:55;97763.31;;;12.27;60.19
44697;BME280;57264;47.480;19.354;2023-04-01T08:32:28;97774.63;;;12.33;60.96
44697;BME280;57264;47.480;19.354;2023-04-01T08:37:39;97777.50;;;12.26;60.02
44697;BME280;57264;47.480;19.354;2023-04-01T08:40:16;97775.38;;;12.28;60.77
44697;BME280;57264;47.480;19.354;2023-04-01T08:45:30;97773.59;;;12.34;59.41
44697;BME280;57264;47.480;19.354;2023-04-01T08:59:38;97772.00;;;12.70;59.07
44697;BME280;57264;47.480;19.354;2023-04-01T09:17:30;97776.78;;;13.20;56.57
44697;BME280;57264;47.480;19.354;2023-04-01T09:48:02;97768.59;;;13.21;56.93
44697;BME280;57264;47.480;19.354;2023-04-01T10:28:04;97773.28;;;14.32;54.15
44697;BME280;57264;47.480;19.354;2023-04-01T10:30:34;97774.03;;;14.32;54.67
44697;BME280;57264;47.480;19.354;2023-04-01T10:47:45;97783.47;;;12.95;59.10
44697;BME280;57264;47.480;19.354;2023-04-01T10:50:38;97785.09;;;12.59;59.50
44697;BME280;57264;47.480;19.354;2023-04-01T11:21:44;97780.38;;;13.76;57.86
44697;BME280;57264;47.480;19.354;2023-04-01T11:31:55;97778.63;;;13.29;58.02
44697;BME280;57264;47.480;19.354;2023-04-01T11:35:00;97784.88;;;13.13;57.99
44697;BME280;57264;47.480;19.354;2023-04-01T11:37:41;97776.63;;;12.94;60.29
44697;BME280;57264;47.480;19.354;2023-04-01T11:45:46;97772.28;;;12.73;59.40
44697;BME280;57264;47.480;19.354;2023-04-01T11:54:32;97780.03;;;12.95;58.86
44697;BME280;57264;47.480;19.354;2023-04-01T12:23:13;97781.53;;;12.76;58.84
44697;BME280;57264;47.480;19.354;2023-04-01T12:26:20;97790.63;;;12.58;58.81
44697;BME280;57264;47.480;19.354;2023-04-01T12:29:07;97779.56;;;13.03;58.62
44697;BME280;57264;47.480;19.354;2023-04-01T12:35:20;97774.81;;;13.67;55.46
44697;BME280;57264;47.480;19.354;2023-04-01T12:37:41;97780.53;;;13.49;56.82
44697;BME280;57264;47.480;19.354;2023-04-01T12:43:17;97778.75;;;13.59;58.03
44697;BME280;57264;47.480;19.354;2023-04-01T13:19:21;97748.19;;;14.14;52.77
44697;BME280;57264;47.480;19.354;2023-04-01T13:22:07;97755.31;;;14.19;53.64
44697;BME280;57264;47.480;19.354;2023-04-01T13:24:44;97757.19;;;14.08;52.03
44697;BME280;57264;47.480;19.354;2023-04-01T13:27:25;97760.34;;;14.00;52.01
44697;BME280;57264;47.480;19.354;2023-04-01T13:32:30;97754.78;;;14.22;51.85
44697;BME280;57264;47.480;19.354;2023-04-01T13:35:35;97760.09;;;14.37;51.26
44697;BME280;57264;47.480;19.354;2023-04-01T13:43:49;97753.47;;;14.09;50.51
44697;BME280;57264;47.480;19.354;2023-04-01T13:47:08;97762.97;;;14.10;49.02
44697;BME280;57264;47.480;19.354;2023-04-01T13:49:16;97762.19;;;14.10;49.50
44697;BME280;57264;47.480;19.354;2023-04-01T14:14:16;97769.03;;;13.95;50.34
44697;BME280;57264;47.480;19.354;2023-04-01T14:27:56;97769.78;;;13.81;51.58
44697;BME280;57264;47.480;19.354;2023-04-01T14:33:34;97770.91;;;14.20;50.05
44697;BME280;57264;47.480;19.354;2023-04-01T14:42:21;97767.72;;;14.18;50.11
44697;BME280;57264;47.480;19.354;2023-04-01T14:50:54;97764.31;;;14.28;51.04
44697;BME280;57264;47.480;19.354;2023-04-01T14:53:31;97768.50;;;14.29;51.33
44697;BME280;57264;47.480;19.354;2023-04-01T14:56:00;97766.66;;;14.34;51.65
44697;BME280;57264;47.480;19.354;2023-04-01T14:58:51;97767.19;;;14.26;51.89
44697;BME280;57264;47.480;19.354;2023-04-01T15:13:19;97766.66;;;13.84;53.84
44697;BME280;57264;47.480;19.354;2023-04-01T15:37:59;97784.59;;;13.87;52.48
44697;BME280;57264;47.480;19.354;2023-04-01T15:40:45;97784.31;;;13.93;53.13
44697;BME280;57264;47.480;19.354;2023-04-01T15:56:06;97805.34;;;13.48;52.64
44697;BME280;57264;47.480;19.354;2023-04-01T15:58:32;97809.16;;;13.20;51.94
44697;BME280;57264;47.480;19.354;2023-04-01T16:09:12;97819.28;;;12.91;54.34
44697;BME280;57264;47.480;19.354;2023-04-01T16:17:52;97823.56;;;12.65;55.33
44697;BME280;57264;47.480;19.354;2023-04-01T16:21:03;97817.19;;;12.56;55.88
44697;BME280;57264;47.480;19.354;2023-04-01T16:26:19;97825.53;;;12.48;55.63
44697;BME280;57264;47.480;19.354;2023-04-01T16:37:21;97829.19;;;12.10;57.46
44697;BME280;57264;47.480;19.354;2023-04-01T16:41:04;97828.59;;;12.03;57.60
44697;BME280;57264;47.480;19.354;2023-04-01T16:48:13;97837.06;;;11.84;58.43
44697;BME280;57264;47.480;19.354;2023-04-01T16:51:04;97844.94;;;11.84;58.49
44697;BME280;57264;47.480;19.354;2023-04-01T16:56:48;97841.59;;;11.66;60.21
44697;BME280;57264;47.480;19.354;2023-04-01T16:59:35;97854.06;;;11.54;61.11
44697;BME280;57264;47.480;19.354;2023-04-01T17:02:08;97853.13;;;11.44;61.23
44697;BME280;57264;47.480;19.354;2023-04-01T17:07:38;97851.97;;;11.13;62.29
44697;BME280;57264;47.480;19.354;2023-04-01T17:11:07;97858.13;;;11.02;62.59
44697;BME280;57264;47.480;19.354;2023-04-01T17:19:22;97860.38;;;10.60;63.86
44697;BME280;57264;47.480;19.354;2023-04-01T17:29:56;97872.72;;;10.43;64.95
44697;BME280;57264;47.480;19.354;2023-04-01T17:32:45;97879.03;;;10.30;65.18
44697;BME280;57264;47.480;19.354;2023-04-01T17:35:35;97876.56;;;10.23;66.02
44697;BME280;57264;47.480;19.354;2023-04-01T17:43:24;97882.53;;;10.07;67.07
44697;BME280;57264;47.480;19.354;2023-04-01T17:45:56;97884.75;;;9.99;67.27
44697;BME280;57264;47.480;19.354;2023-04-01T17:49:25;97888.53;;;9.91;67.67
44697;BME280;57264;47.480;19.354;2023-04-01T17:51:55;97890.97;;;9.81;67.19
44697;BME280;57264;47.480;19.354;2023-04-01T18:03:16;97902.66;;;9.62;67.97
44697;BME280;57264;47.480;19.354;2023-04-01T18:09:12;97919.38;;;9.61;67.65
44697;BME280;57264;47.480;19.354;2023-04-01T18:25:47;97927.03;;;9.39;68.41
44697;BME280;57264;47.480;19.354;2023-04-01T18:31:44;97932.19;;;9.34;67.84
44697;BME280;57264;47.480;19.354;2023-04-01T18:45:43;97936.25;;;8.83;70.28
44697;BME280;57264;47.480;19.354;2023-04-01T18:51:36;97944.19;;;8.65;71.05
44697;BME280;57264;47.480;19.354;2023-04-01T18:54:23;97938.28;;;8.58;70.96
44697;BME280;57264;47.480;19.354;2023-04-01T18:57:04;97951.34;;;8.58;71.28
44697;BME280;57264;47.480;19.354;2023-04-01T18:59:53;97947.03;;;8.64;70.43
44697;BME280;57264;47.480;19.354;2023-04-01T19:12:51;97953.09;;;8.34;71.77
44697;BME280;57264;47.480;19.354;2023-04-01T19:35:25;97982.97;;;7.90;72.83
44697;BME280;57264;47.480;19.354;2023-04-01T19:38:03;97992.25;;;7.86;72.92
44697;BME280;57264;47.480;19.354;2023-04-01T19:46:16;97993.44;;;7.72;73.79
44697;BME280;57264;47.480;19.354;2023-04-01T20:08:16;98009.31;;;7.71;73.94
44697;BME280;57264;47.480;19.354;2023-04-01T20:16:21;98009.47;;;7.94;72.44
44697;BME280;57264;47.480;19.354;2023-04-01T20:18:59;98003.41;;;8.12;71.77
44697;BME280;57264;47.480;19.354;2023-04-01T20:21:36;98012.72;;;8.08;71.98
44697;BME280;57264;47.480;19.354;2023-04-01T20:36:21;98019.53;;;7.72;73.77
44697;BME280;57264;47.480;19.354;2023-04-01T20:41:44;98021.34;;;7.53;74.35
44697;BME280;57264;47.480;19.354;2023-04-01T20:44:37;98023.63;;;7.43;75.02
44697;BME280;57264;47.480;19.354;2023-04-01T20:50:26;98022.75;;;7.31;75.27
44697;BME280;57264;47.480;19.354;2023-04-01T20:52:44;98020.63;;;7.22;75.36
44697;BME280;57264;47.480;19.354;2023-04-01T21:00:51;98027.28;;;6.93;76.65
44697;BME280;57264;47.480;19.354;2023-04-01T21:03:45;98025.09;;;6.90;76.82
44697;BME280;57264;47.480;19.354;2023-04-01T21:09:29;98030.47;;;6.64;78.21
44697;BME280;57264;47.480;19.354;2023-04-01T21:20:12;98030.25;;;6.27;79.41
44697;BME280;57264;47.480;19.354;2023-04-01T21:34:03;98045.94;;;6.07;80.57
44697;BME280;57264;47.480;19.354;2023-04-01T21:36:57;98052.22;;;5.87;80.76
44697;BME280;57264;47.480;19.354;2023-04-01T21:39:58;98053.44;;;5.71;81.69
44697;BME280;57264;47.480;19.354;2023-04-01T21:42:54;98059.63;;;5.70;81.82
44697;BME280;57264;47.480;19.354;2023-04-01T22:05:28;98064.25;;;5.55;83.01
44697;BME280;57264;47.480;19.354;2023-04-01T22:08:31;98058.47;;;5.46;83.32
44697;BME280;57264;47.480;19.354;2023-04-01T22:13:50;98065.47;;;5.46;84.93
44697;BME280;57264;47.480;19.354;2023-04-01T22:18:50;98067.47;;;5.44;84.77
44697;BME280;57264;47.480;19.354;2023-04-01T22:24:13;98068.47;;;5.30;84.82
44697;BME280;57264;47.480;19.354;2023-04-01T22:29:38;98062.69;;;5.28;85.39
44697;BME280;57264;47.480;19.354;2023-04-01T22:32:55;98069.47;;;5.42;85.46
44697;BME280;57264;47.480;19.354;2023-04-01T22:40:58;98071.66;;;5.58;85.10
44697;BME280;57264;47.480;19.354;2023-04-01T22:43:40;98073.69;;;5.56;84.84
44697;BME280;57264;47.480;19.354;2023-04-01T22:46:20;98077.88;;;5.50;84.49
44697;BME280;57264;47.480;19.354;2023-04-01T22:51:24;98090.28;;;5.68;84.09
44697;BME280;57264;47.480;19.354;2023-04-01T23:00:01;98080.28;;;5.58;83.99
44697;BME280;57264;47.480;19.354;2023-04-01T23:02:37;98090.50;;;5.53;84.58
44697;BME280;57264;47.480;19.354;2023-04-01T23:05:10;98100.91;;;5.47;84.65
44697;BME280;57264;47.480;19.354;2023-04-01T23:07:59;98091.72;;;5.44;84.48
44697;BME280;57264;47.480;19.354;2023-04-01T23:10:54;98097.69;;;5.32;85.52
44697;BME280;57264;47.480;19.354;2023-04-01T23:13:29;98101.09;;;5.32;85.28
44697;BME280;57264;47.480;19.354;2023-04-01T23:15:57;98103.50;;;5.34;85.21
44697;BME280;57264;47.480;19.354;2023-04-01T23:18:36;98112.88;;;5.22;84.86
44697;BME280;57264;47.480;19.354;2023-04-01T23:21:11;98113.47;;;5.10;85.45
44697;BME280;57264;47.480;19.354;2023-04-01T23:23:58;98112.50;;;5.18;85.67
44697;BME280;57264;47.480;19.354;2023-04-01T23:26:39;98126.88;;;5.07;86.39
44697;BME280;57264;47.480;19.354;2023-04-01T23:29:14;98119.50;;;5.11;86.37
44697;BME280;57264;47.480;19.354;2023-04-01T23:31:47;98123.09;;;5.23;85.97
44697;BME280;57264;47.480;19.354;2023-04-01T23:37:05;98122.72;;;5.33;85.68
44697;BME280;57264;47.480;19.354;2023-04-01T23:39:55;98125.31;;;5.46;85.56
44697;BME280;57264;47.480;19.354;2023-04-01T23:44:58;98121.53;;;5.68;84.69
44697;BME280;57264;47.480;19.354;2023-04-01T23:47:32;98122.13;;;5.63;84.64
44697;BME280;57264;47.480;19.354;2023-04-01T23:50:09;98124.34;;;5.73;83.99
44697;BME280;57264;47.480;19.354;2023-04-01T23:52:41;98133.94;;;5.73;84.15
44697;BME280;57264;47.480;19.354;2023-04-01T23:57:37;98119.31;;;5.72;83.93
